sensor_id;sensor_type;location;lat;lon;timestamp;P1;durP1;ratioP1;P2;durP2;ratioP2
20411;SDS011;10365;52.578;8.138;2023-06-26T00:01:49;12.93;;;9.55;;
20411;SDS011;10365;52.578;8.138;2023-06-26T00:04:14;9.93;;;8.52;;
20411;SDS011;10365;52.578;8.138;2023-06-26T00:06:40;11.55;;;8.65;;
20411;SDS011;10365;52.578;8.138;2023-06-26T00:09:06;10.85;;;8.98;;
20411;SDS011;10365;52.578;8.138;2023-06-26T00:11:31;11.35;;;8.35;;
20411;SDS011;10365;52.578;8.138;2023-06-26T00:13:58;12.00;;;8.90;;
20411;SDS011;10365;52.578;8.138;2023-06-26T00:16:25;10.45;;;8.70;;
20411;SDS011;10365;52.578;8.138;2023-06-26T00:18:50;14.80;;;10.15;;
20411;SDS011;10365;52.578;8.138;2023-06-26T00:21:16;13.43;;;9.38;;
20411;SDS011;10365;52.578;8.138;2023-06-26T00:23:41;10.15;;;9.15;;
20411;SDS011;10365;52.578;8.138;2023-06-26T00:26:06;11.00;;;9.45;;
20411;SDS011;10365;52.578;8.138;2023-06-26T00:28:32;12.65;;;10.65;;
20411;SDS011;10365;52.578;8.138;2023-06-26T00:30:57;10.93;;;9.30;;
20411;SDS011;10365;52.578;8.138;2023-06-26T00:33:22;11.77;;;9.65;;
20411;SDS011;10365;52.578;8.138;2023-06-26T00:35:49;13.45;;;10.48;;
20411;SDS011;10365;52.578;8.138;2023-06-26T00:38:14;11.25;;;10.15;;
20411;SDS011;10365;52.578;8.138;2023-06-26T00:40:40;14.13;;;10.90;;
20411;SDS011;10365;52.578;8.138;2023-06-26T00:43:06;12.40;;;10.65;;
20411;SDS011;10365;52.578;8.138;2023-06-26T00:45:31;11.98;;;10.65;;
20411;SDS011;10365;52.578;8.138;2023-06-26T00:47:57;13.05;;;10.70;;
20411;SDS011;10365;52.578;8.138;2023-06-26T00:50:22;11.40;;;10.20;;
20411;SDS011;10365;52.578;8.138;2023-06-26T00:52:48;13.18;;;10.60;;
20411;SDS011;10365;52.578;8.138;2023-06-26T00:55:13;14.68;;;11.32;;
20411;SDS011;10365;52.578;8.138;2023-06-26T00:57:39;12.65;;;11.07;;
20411;SDS011;10365;52.578;8.138;2023-06-26T01:00:04;12.82;;;10.77;;
20411;SDS011;10365;52.578;8.138;2023-06-26T01:02:30;13.32;;;10.82;;
20411;SDS011;10365;52.578;8.138;2023-06-26T01:04:59;11.73;;;10.32;;
20411;SDS011;10365;52.578;8.138;2023-06-26T01:07:26;13.15;;;10.43;;
20411;SDS011;10365;52.578;8.138;2023-06-26T01:09:52;12.10;;;10.77;;
20411;SDS011;10365;52.578;8.138;2023-06-26T01:12:17;13.75;;;10.32;;
20411;SDS011;10365;52.578;8.138;2023-06-26T01:14:42;15.00;;;9.57;;
20411;SDS011;10365;52.578;8.138;2023-06-26T01:17:08;12.75;;;10.15;;
20411;SDS011;10365;52.578;8.138;2023-06-26T01:19:37;13.35;;;10.43;;
20411;SDS011;10365;52.578;8.138;2023-06-26T01:22:09;13.82;;;10.48;;
20411;SDS011;10365;52.578;8.138;2023-06-26T01:24:39;11.55;;;9.95;;
20411;SDS011;10365;52.578;8.138;2023-06-26T01:27:07;12.70;;;10.75;;
20411;SDS011;10365;52.578;8.138;2023-06-26T01:29:32;12.65;;;10.10;;
20411;SDS011;10365;52.578;8.138;2023-06-26T01:31:59;12.32;;;10.70;;
20411;SDS011;10365;52.578;8.138;2023-06-26T01:34:26;17.52;;;11.57;;
20411;SDS011;10365;52.578;8.138;2023-06-26T01:36:52;11.60;;;10.30;;
20411;SDS011;10365;52.578;8.138;2023-06-26T01:39:18;14.35;;;11.20;;
20411;SDS011;10365;52.578;8.138;2023-06-26T01:41:43;13.35;;;10.70;;
20411;SDS011;10365;52.578;8.138;2023-06-26T01:44:17;13.23;;;11.05;;
20411;SDS011;10365;52.578;8.138;2023-06-26T01:49:30;14.35;;;11.05;;
20411;SDS011;10365;52.578;8.138;2023-06-26T01:52:16;15.00;;;10.30;;
20411;SDS011;10365;52.578;8.138;2023-06-26T01:54:55;12.45;;;10.70;;
20411;SDS011;10365;52.578;8.138;2023-06-26T01:57:21;14.23;;;11.10;;
20411;SDS011;10365;52.578;8.138;2023-06-26T01:59:50;15.23;;;10.65;;
20411;SDS011;10365;52.578;8.138;2023-06-26T02:02:17;11.48;;;10.30;;
20411;SDS011;10365;52.578;8.138;2023-06-26T02:04:43;11.07;;;9.80;;
20411;SDS011;10365;52.578;8.138;2023-06-26T02:07:08;11.82;;;10.55;;
20411;SDS011;10365;52.578;8.138;2023-06-26T02:09:34;12.70;;;10.82;;
20411;SDS011;10365;52.578;8.138;2023-06-26T02:12:00;12.27;;;10.38;;
20411;SDS011;10365;52.578;8.138;2023-06-26T02:14:25;12.82;;;10.10;;
20411;SDS011;10365;52.578;8.138;2023-06-26T02:16:51;14.20;;;10.13;;
20411;SDS011;10365;52.578;8.138;2023-06-26T02:19:16;12.60;;;10.65;;
20411;SDS011;10365;52.578;8.138;2023-06-26T02:21:49;10.77;;;9.68;;
20411;SDS011;10365;52.578;8.138;2023-06-26T02:24:15;10.68;;;9.57;;
20411;SDS011;10365;52.578;8.138;2023-06-26T02:26:40;13.35;;;10.15;;
20411;SDS011;10365;52.578;8.138;2023-06-26T02:29:05;11.73;;;9.88;;
20411;SDS011;10365;52.578;8.138;2023-06-26T02:31:31;12.82;;;10.60;;
20411;SDS011;10365;52.578;8.138;2023-06-26T02:33:57;12.27;;;9.90;;
20411;SDS011;10365;52.578;8.138;2023-06-26T02:36:22;12.18;;;10.35;;
20411;SDS011;10365;52.578;8.138;2023-06-26T02:38:47;12.63;;;11.32;;
20411;SDS011;10365;52.578;8.138;2023-06-26T02:41:13;20.88;;;11.63;;
20411;SDS011;10365;52.578;8.138;2023-06-26T02:43:38;14.77;;;10.80;;
20411;SDS011;10365;52.578;8.138;2023-06-26T02:46:04;13.90;;;11.00;;
20411;SDS011;10365;52.578;8.138;2023-06-26T02:48:29;12.40;;;10.27;;
20411;SDS011;10365;52.578;8.138;2023-06-26T02:50:55;13.13;;;10.88;;
20411;SDS011;10365;52.578;8.138;2023-06-26T02:53:26;11.82;;;9.98;;
20411;SDS011;10365;52.578;8.138;2023-06-26T02:55:51;12.23;;;10.15;;
20411;SDS011;10365;52.578;8.138;2023-06-26T02:58:17;11.80;;;10.60;;
20411;SDS011;10365;52.578;8.138;2023-06-26T03:00:43;15.85;;;10.30;;
20411;SDS011;10365;52.578;8.138;2023-06-26T03:03:13;11.98;;;10.15;;
20411;SDS011;10365;52.578;8.138;2023-06-26T03:05:38;12.48;;;10.10;;
20411;SDS011;10365;52.578;8.138;2023-06-26T03:08:04;10.90;;;9.57;;
20411;SDS011;10365;52.578;8.138;2023-06-26T03:10:29;13.57;;;10.00;;
20411;SDS011;10365;52.578;8.138;2023-06-26T03:12:55;13.68;;;10.18;;
20411;SDS011;10365;52.578;8.138;2023-06-26T03:15:20;14.88;;;9.45;;
20411;SDS011;10365;52.578;8.138;2023-06-26T03:17:46;11.45;;;9.55;;
20411;SDS011;10365;52.578;8.138;2023-06-26T03:20:17;11.98;;;9.35;;
20411;SDS011;10365;52.578;8.138;2023-06-26T03:22:47;14.40;;;9.20;;
20411;SDS011;10365;52.578;8.138;2023-06-26T03:25:15;12.43;;;9.10;;
20411;SDS011;10365;52.578;8.138;2023-06-26T03:27:40;9.93;;;8.70;;
20411;SDS011;10365;52.578;8.138;2023-06-26T03:30:05;14.10;;;9.48;;
20411;SDS011;10365;52.578;8.138;2023-06-26T03:32:33;11.77;;;9.13;;
20411;SDS011;10365;52.578;8.138;2023-06-26T03:34:59;15.65;;;9.20;;
20411;SDS011;10365;52.578;8.138;2023-06-26T03:37:28;10.82;;;8.88;;
20411;SDS011;10365;52.578;8.138;2023-06-26T03:39:54;13.90;;;8.98;;
20411;SDS011;10365;52.578;8.138;2023-06-26T03:42:20;11.05;;;8.30;;
20411;SDS011;10365;52.578;8.138;2023-06-26T03:44:45;10.57;;;8.68;;
20411;SDS011;10365;52.578;8.138;2023-06-26T03:47:11;10.73;;;8.40;;
20411;SDS011;10365;52.578;8.138;2023-06-26T03:49:36;10.75;;;8.60;;
20411;SDS011;10365;52.578;8.138;2023-06-26T03:52:02;10.57;;;8.00;;
20411;SDS011;10365;52.578;8.138;2023-06-26T03:54:27;11.57;;;8.55;;
20411;SDS011;10365;52.578;8.138;2023-06-26T03:56:53;9.98;;;7.85;;
20411;SDS011;10365;52.578;8.138;2023-06-26T03:59:20;11.73;;;8.55;;
20411;SDS011;10365;52.578;8.138;2023-06-26T04:01:46;12.30;;;8.32;;
20411;SDS011;10365;52.578;8.138;2023-06-26T04:04:12;13.43;;;8.43;;
20411;SDS011;10365;52.578;8.138;2023-06-26T04:06:38;9.75;;;8.15;;
20411;SDS011;10365;52.578;8.138;2023-06-26T04:09:04;13.32;;;8.32;;
20411;SDS011;10365;52.578;8.138;2023-06-26T04:11:30;9.35;;;7.68;;
20411;SDS011;10365;52.578;8.138;2023-06-26T04:13:56;9.40;;;7.63;;
20411;SDS011;10365;52.578;8.138;2023-06-26T04:16:21;12.85;;;7.70;;
20411;SDS011;10365;52.578;8.138;2023-06-26T04:18:50;10.50;;;7.57;;
20411;SDS011;10365;52.578;8.138;2023-06-26T04:21:15;14.65;;;7.93;;
20411;SDS011;10365;52.578;8.138;2023-06-26T04:23:42;10.45;;;8.20;;
20411;SDS011;10365;52.578;8.138;2023-06-26T04:26:07;9.88;;;7.80;;
20411;SDS011;10365;52.578;8.138;2023-06-26T04:28:33;9.93;;;7.88;;
20411;SDS011;10365;52.578;8.138;2023-06-26T04:30:59;11.82;;;8.88;;
20411;SDS011;10365;52.578;8.138;2023-06-26T04:33:25;12.88;;;8.52;;
20411;SDS011;10365;52.578;8.138;2023-06-26T04:35:51;10.35;;;8.20;;
20411;SDS011;10365;52.578;8.138;2023-06-26T04:38:16;14.18;;;8.40;;
20411;SDS011;10365;52.578;8.138;2023-06-26T04:40:42;13.13;;;7.97;;
20411;SDS011;10365;52.578;8.138;2023-06-26T04:43:07;10.23;;;7.63;;
20411;SDS011;10365;52.578;8.138;2023-06-26T04:45:33;9.07;;;7.50;;
20411;SDS011;10365;52.578;8.138;2023-06-26T04:47:58;9.32;;;7.50;;
20411;SDS011;10365;52.578;8.138;2023-06-26T04:50:25;12.25;;;6.88;;
20411;SDS011;10365;52.578;8.138;2023-06-26T04:52:51;10.45;;;7.40;;
20411;SDS011;10365;52.578;8.138;2023-06-26T04:55:16;11.25;;;7.53;;
20411;SDS011;10365;52.578;8.138;2023-06-26T04:57:42;8.77;;;7.15;;
20411;SDS011;10365;52.578;8.138;2023-06-26T05:00:07;8.45;;;7.43;;
20411;SDS011;10365;52.578;8.138;2023-06-26T05:02:36;8.48;;;7.60;;
20411;SDS011;10365;52.578;8.138;2023-06-26T05:05:01;9.13;;;7.45;;
20411;SDS011;10365;52.578;8.138;2023-06-26T05:07:26;10.70;;;7.30;;
20411;SDS011;10365;52.578;8.138;2023-06-26T05:09:52;11.32;;;6.45;;
20411;SDS011;10365;52.578;8.138;2023-06-26T05:12:17;10.38;;;6.75;;
20411;SDS011;10365;52.578;8.138;2023-06-26T05:14:42;9.10;;;7.00;;
20411;SDS011;10365;52.578;8.138;2023-06-26T05:17:08;7.45;;;6.65;;
20411;SDS011;10365;52.578;8.138;2023-06-26T05:19:33;8.98;;;6.53;;
20411;SDS011;10365;52.578;8.138;2023-06-26T05:21:58;9.23;;;6.45;;
20411;SDS011;10365;52.578;8.138;2023-06-26T05:24:24;12.73;;;7.07;;
20411;SDS011;10365;52.578;8.138;2023-06-26T05:26:50;12.65;;;8.00;;
20411;SDS011;10365;52.578;8.138;2023-06-26T05:29:16;8.13;;;7.32;;
20411;SDS011;10365;52.578;8.138;2023-06-26T05:31:41;12.02;;;7.40;;
20411;SDS011;10365;52.578;8.138;2023-06-26T05:34:07;10.63;;;7.80;;
20411;SDS011;10365;52.578;8.138;2023-06-26T05:36:33;11.32;;;7.82;;
20411;SDS011;10365;52.578;8.138;2023-06-26T05:38:59;8.77;;;7.45;;
20411;SDS011;10365;52.578;8.138;2023-06-26T05:41:25;9.05;;;7.53;;
20411;SDS011;10365;52.578;8.138;2023-06-26T05:43:50;11.27;;;7.82;;
20411;SDS011;10365;52.578;8.138;2023-06-26T05:46:15;10.18;;;8.25;;
20411;SDS011;10365;52.578;8.138;2023-06-26T05:48:41;11.95;;;7.65;;
20411;SDS011;10365;52.578;8.138;2023-06-26T05:51:07;10.07;;;8.52;;
20411;SDS011;10365;52.578;8.138;2023-06-26T05:53:32;10.45;;;8.40;;
20411;SDS011;10365;52.578;8.138;2023-06-26T05:55:58;10.20;;;8.30;;
20411;SDS011;10365;52.578;8.138;2023-06-26T05:58:24;14.40;;;9.10;;
20411;SDS011;10365;52.578;8.138;2023-06-26T06:00:51;10.50;;;8.73;;
20411;SDS011;10365;52.578;8.138;2023-06-26T06:03:16;12.48;;;9.32;;
20411;SDS011;10365;52.578;8.138;2023-06-26T06:05:41;13.88;;;9.30;;
20411;SDS011;10365;52.578;8.138;2023-06-26T06:08:07;13.48;;;10.13;;
20411;SDS011;10365;52.578;8.138;2023-06-26T06:10:32;13.13;;;10.07;;
20411;SDS011;10365;52.578;8.138;2023-06-26T06:12:58;14.38;;;10.20;;
20411;SDS011;10365;52.578;8.138;2023-06-26T06:15:23;17.73;;;10.77;;
20411;SDS011;10365;52.578;8.138;2023-06-26T06:17:48;14.00;;;10.75;;
20411;SDS011;10365;52.578;8.138;2023-06-26T06:20:14;13.18;;;9.45;;
20411;SDS011;10365;52.578;8.138;2023-06-26T06:22:39;14.77;;;9.98;;
20411;SDS011;10365;52.578;8.138;2023-06-26T06:25:04;12.45;;;10.05;;
20411;SDS011;10365;52.578;8.138;2023-06-26T06:27:30;11.57;;;9.55;;
20411;SDS011;10365;52.578;8.138;2023-06-26T06:29:56;12.13;;;10.45;;
20411;SDS011;10365;52.578;8.138;2023-06-26T06:32:22;13.88;;;10.50;;
20411;SDS011;10365;52.578;8.138;2023-06-26T06:34:47;13.20;;;10.48;;
20411;SDS011;10365;52.578;8.138;2023-06-26T06:37:12;14.10;;;10.93;;
20411;SDS011;10365;52.578;8.138;2023-06-26T06:39:38;14.70;;;10.57;;
20411;SDS011;10365;52.578;8.138;2023-06-26T06:42:03;13.93;;;10.18;;
20411;SDS011;10365;52.578;8.138;2023-06-26T06:44:29;13.05;;;9.45;;
20411;SDS011;10365;52.578;8.138;2023-06-26T06:46:55;14.25;;;10.00;;
20411;SDS011;10365;52.578;8.138;2023-06-26T06:49:21;17.40;;;9.48;;
20411;SDS011;10365;52.578;8.138;2023-06-26T06:51:46;13.63;;;9.50;;
20411;SDS011;10365;52.578;8.138;2023-06-26T06:54:11;13.90;;;9.90;;
20411;SDS011;10365;52.578;8.138;2023-06-26T06:56:36;12.02;;;9.23;;
20411;SDS011;10365;52.578;8.138;2023-06-26T06:59:02;12.82;;;9.40;;
20411;SDS011;10365;52.578;8.138;2023-06-26T07:01:27;12.75;;;9.68;;
20411;SDS011;10365;52.578;8.138;2023-06-26T07:03:53;12.82;;;9.57;;
20411;SDS011;10365;52.578;8.138;2023-06-26T07:06:18;14.07;;;9.05;;
20411;SDS011;10365;52.578;8.138;2023-06-26T07:08:44;12.85;;;9.57;;
20411;SDS011;10365;52.578;8.138;2023-06-26T07:11:09;11.23;;;9.90;;
20411;SDS011;10365;52.578;8.138;2023-06-26T07:13:34;13.98;;;9.88;;
20411;SDS011;10365;52.578;8.138;2023-06-26T07:16:00;17.20;;;10.50;;
20411;SDS011;10365;52.578;8.138;2023-06-26T07:18:25;11.73;;;10.13;;
20411;SDS011;10365;52.578;8.138;2023-06-26T07:20:50;11.95;;;10.23;;
20411;SDS011;10365;52.578;8.138;2023-06-26T07:23:16;17.20;;;11.52;;
20411;SDS011;10365;52.578;8.138;2023-06-26T07:25:41;12.82;;;10.15;;
20411;SDS011;10365;52.578;8.138;2023-06-26T07:28:10;16.65;;;11.35;;
20411;SDS011;10365;52.578;8.138;2023-06-26T07:30:35;15.68;;;10.50;;
20411;SDS011;10365;52.578;8.138;2023-06-26T07:33:01;25.63;;;10.80;;
20411;SDS011;10365;52.578;8.138;2023-06-26T07:35:26;11.45;;;9.25;;
20411;SDS011;10365;52.578;8.138;2023-06-26T07:37:52;16.20;;;8.73;;
20411;SDS011;10365;52.578;8.138;2023-06-26T07:40:18;11.70;;;8.40;;
20411;SDS011;10365;52.578;8.138;2023-06-26T07:42:43;10.52;;;7.60;;
20411;SDS011;10365;52.578;8.138;2023-06-26T07:45:08;14.48;;;8.10;;
20411;SDS011;10365;52.578;8.138;2023-06-26T07:47:37;14.07;;;9.30;;
20411;SDS011;10365;52.578;8.138;2023-06-26T07:50:03;16.77;;;10.75;;
20411;SDS011;10365;52.578;8.138;2023-06-26T07:52:28;16.67;;;10.43;;
20411;SDS011;10365;52.578;8.138;2023-06-26T07:54:55;15.05;;;10.93;;
20411;SDS011;10365;52.578;8.138;2023-06-26T07:57:20;16.65;;;11.80;;
20411;SDS011;10365;52.578;8.138;2023-06-26T07:59:46;19.63;;;12.63;;
20411;SDS011;10365;52.578;8.138;2023-06-26T08:02:11;23.23;;;13.75;;
20411;SDS011;10365;52.578;8.138;2023-06-26T08:04:36;23.50;;;14.23;;
20411;SDS011;10365;52.578;8.138;2023-06-26T08:07:02;23.80;;;14.30;;
20411;SDS011;10365;52.578;8.138;2023-06-26T08:09:29;22.42;;;13.75;;
20411;SDS011;10365;52.578;8.138;2023-06-26T08:11:54;18.70;;;12.52;;
20411;SDS011;10365;52.578;8.138;2023-06-26T08:14:20;22.95;;;11.43;;
20411;SDS011;10365;52.578;8.138;2023-06-26T08:16:45;16.77;;;11.18;;
20411;SDS011;10365;52.578;8.138;2023-06-26T08:19:11;13.55;;;10.23;;
20411;SDS011;10365;52.578;8.138;2023-06-26T08:21:39;16.98;;;10.68;;
20411;SDS011;10365;52.578;8.138;2023-06-26T08:24:04;16.10;;;10.07;;
20411;SDS011;10365;52.578;8.138;2023-06-26T08:26:29;14.98;;;10.75;;
20411;SDS011;10365;52.578;8.138;2023-06-26T08:28:55;16.80;;;9.98;;
20411;SDS011;10365;52.578;8.138;2023-06-26T08:31:20;15.35;;;9.73;;
20411;SDS011;10365;52.578;8.138;2023-06-26T08:33:46;16.67;;;10.25;;
20411;SDS011;10365;52.578;8.138;2023-06-26T08:36:11;15.90;;;9.77;;
20411;SDS011;10365;52.578;8.138;2023-06-26T08:38:36;15.45;;;9.45;;
20411;SDS011;10365;52.578;8.138;2023-06-26T08:41:02;15.15;;;10.20;;
20411;SDS011;10365;52.578;8.138;2023-06-26T08:43:27;22.85;;;9.40;;
20411;SDS011;10365;52.578;8.138;2023-06-26T08:45:53;12.55;;;8.93;;
20411;SDS011;10365;52.578;8.138;2023-06-26T08:48:19;15.77;;;8.82;;
20411;SDS011;10365;52.578;8.138;2023-06-26T08:50:45;15.48;;;8.80;;
20411;SDS011;10365;52.578;8.138;2023-06-26T08:55:57;11.40;;;7.32;;
20411;SDS011;10365;52.578;8.138;2023-06-26T08:58:22;12.73;;;7.18;;
20411;SDS011;10365;52.578;8.138;2023-06-26T09:00:48;17.27;;;7.15;;
20411;SDS011;10365;52.578;8.138;2023-06-26T09:03:14;15.30;;;6.38;;
20411;SDS011;10365;52.578;8.138;2023-06-26T09:05:40;13.18;;;6.25;;
20411;SDS011;10365;52.578;8.138;2023-06-26T09:08:06;10.82;;;6.25;;
20411;SDS011;10365;52.578;8.138;2023-06-26T09:10:32;12.38;;;6.45;;
20411;SDS011;10365;52.578;8.138;2023-06-26T09:12:57;12.85;;;6.55;;
20411;SDS011;10365;52.578;8.138;2023-06-26T09:15:23;10.32;;;6.25;;
20411;SDS011;10365;52.578;8.138;2023-06-26T09:17:48;10.20;;;5.00;;
20411;SDS011;10365;52.578;8.138;2023-06-26T09:20:14;7.53;;;4.63;;
20411;SDS011;10365;52.578;8.138;2023-06-26T09:22:41;8.10;;;4.50;;
20411;SDS011;10365;52.578;8.138;2023-06-26T09:25:07;12.90;;;5.20;;
20411;SDS011;10365;52.578;8.138;2023-06-26T09:27:32;8.15;;;4.45;;
20411;SDS011;10365;52.578;8.138;2023-06-26T09:29:58;10.73;;;4.05;;
20411;SDS011;10365;52.578;8.138;2023-06-26T09:32:24;5.53;;;3.03;;
20411;SDS011;10365;52.578;8.138;2023-06-26T09:34:52;4.95;;;2.80;;
20411;SDS011;10365;52.578;8.138;2023-06-26T09:37:18;5.10;;;2.78;;
20411;SDS011;10365;52.578;8.138;2023-06-26T09:39:43;6.95;;;2.13;;
20411;SDS011;10365;52.578;8.138;2023-06-26T09:42:09;8.52;;;2.42;;
20411;SDS011;10365;52.578;8.138;2023-06-26T09:44:35;6.65;;;2.85;;
20411;SDS011;10365;52.578;8.138;2023-06-26T09:47:01;5.78;;;2.60;;
20411;SDS011;10365;52.578;8.138;2023-06-26T09:49:27;7.65;;;2.22;;
20411;SDS011;10365;52.578;8.138;2023-06-26T09:51:52;6.10;;;2.58;;
20411;SDS011;10365;52.578;8.138;2023-06-26T09:54:18;4.32;;;1.83;;
20411;SDS011;10365;52.578;8.138;2023-06-26T09:56:46;5.10;;;2.10;;
20411;SDS011;10365;52.578;8.138;2023-06-26T09:59:11;3.95;;;2.20;;
20411;SDS011;10365;52.578;8.138;2023-06-26T10:01:39;4.30;;;2.20;;
20411;SDS011;10365;52.578;8.138;2023-06-26T10:04:05;5.93;;;1.95;;
20411;SDS011;10365;52.578;8.138;2023-06-26T10:06:35;4.85;;;1.98;;
20411;SDS011;10365;52.578;8.138;2023-06-26T10:09:01;3.13;;;1.45;;
20411;SDS011;10365;52.578;8.138;2023-06-26T10:11:33;5.90;;;2.17;;
20411;SDS011;10365;52.578;8.138;2023-06-26T10:14:00;4.68;;;2.00;;
20411;SDS011;10365;52.578;8.138;2023-06-26T10:16:26;6.85;;;1.67;;
20411;SDS011;10365;52.578;8.138;2023-06-26T10:18:53;5.15;;;1.33;;
20411;SDS011;10365;52.578;8.138;2023-06-26T10:21:22;4.05;;;1.67;;
20411;SDS011;10365;52.578;8.138;2023-06-26T10:23:48;3.45;;;1.80;;
20411;SDS011;10365;52.578;8.138;2023-06-26T10:26:14;5.13;;;1.88;;
20411;SDS011;10365;52.578;8.138;2023-06-26T10:28:41;4.57;;;1.63;;
20411;SDS011;10365;52.578;8.138;2023-06-26T10:31:08;3.95;;;1.80;;
20411;SDS011;10365;52.578;8.138;2023-06-26T10:33:34;4.20;;;1.70;;
20411;SDS011;10365;52.578;8.138;2023-06-26T10:36:13;6.95;;;1.73;;
20411;SDS011;10365;52.578;8.138;2023-06-26T10:38:48;7.30;;;1.95;;
20411;SDS011;10365;52.578;8.138;2023-06-26T10:41:14;5.90;;;1.88;;
20411;SDS011;10365;52.578;8.138;2023-06-26T10:43:41;6.45;;;1.83;;
20411;SDS011;10365;52.578;8.138;2023-06-26T10:46:09;6.47;;;1.65;;
20411;SDS011;10365;52.578;8.138;2023-06-26T10:48:44;5.97;;;1.70;;
20411;SDS011;10365;52.578;8.138;2023-06-26T10:51:20;3.10;;;1.42;;
20411;SDS011;10365;52.578;8.138;2023-06-26T10:53:49;9.73;;;1.92;;
20411;SDS011;10365;52.578;8.138;2023-06-26T10:56:15;3.45;;;1.40;;
20411;SDS011;10365;52.578;8.138;2023-06-26T10:58:41;2.65;;;1.33;;
20411;SDS011;10365;52.578;8.138;2023-06-26T11:01:22;4.38;;;1.50;;
20411;SDS011;10365;52.578;8.138;2023-06-26T11:06:16;3.33;;;1.48;;
20411;SDS011;10365;52.578;8.138;2023-06-26T11:08:59;4.00;;;1.60;;
20411;SDS011;10365;52.578;8.138;2023-06-26T11:14:09;4.53;;;1.80;;
20411;SDS011;10365;52.578;8.138;2023-06-26T11:16:35;2.47;;;1.30;;
20411;SDS011;10365;52.578;8.138;2023-06-26T11:19:00;6.65;;;2.05;;
20411;SDS011;10365;52.578;8.138;2023-06-26T11:21:26;3.88;;;1.35;;
20411;SDS011;10365;52.578;8.138;2023-06-26T11:23:52;9.43;;;1.65;;
20411;SDS011;10365;52.578;8.138;2023-06-26T11:26:20;7.53;;;1.67;;
20411;SDS011;10365;52.578;8.138;2023-06-26T11:28:52;4.43;;;1.45;;
20411;SDS011;10365;52.578;8.138;2023-06-26T11:31:24;6.25;;;1.50;;
20411;SDS011;10365;52.578;8.138;2023-06-26T11:33:50;2.75;;;1.55;;
20411;SDS011;10365;52.578;8.138;2023-06-26T11:36:15;15.27;;;2.13;;
20411;SDS011;10365;52.578;8.138;2023-06-26T11:38:41;4.53;;;1.45;;
20411;SDS011;10365;52.578;8.138;2023-06-26T11:41:06;6.15;;;1.63;;
20411;SDS011;10365;52.578;8.138;2023-06-26T11:43:33;4.18;;;1.67;;
20411;SDS011;10365;52.578;8.138;2023-06-26T11:45:59;6.00;;;1.80;;
20411;SDS011;10365;52.578;8.138;2023-06-26T11:48:24;7.03;;;1.67;;
20411;SDS011;10365;52.578;8.138;2023-06-26T11:50:50;3.22;;;1.70;;
20411;SDS011;10365;52.578;8.138;2023-06-26T11:53:16;3.65;;;1.77;;
20411;SDS011;10365;52.578;8.138;2023-06-26T11:55:42;3.63;;;1.50;;
20411;SDS011;10365;52.578;8.138;2023-06-26T11:58:08;4.32;;;1.50;;
20411;SDS011;10365;52.578;8.138;2023-06-26T12:00:33;3.03;;;1.40;;
20411;SDS011;10365;52.578;8.138;2023-06-26T12:02:58;5.00;;;1.70;;
20411;SDS011;10365;52.578;8.138;2023-06-26T12:05:24;3.45;;;1.50;;
20411;SDS011;10365;52.578;8.138;2023-06-26T12:07:49;2.33;;;1.60;;
20411;SDS011;10365;52.578;8.138;2023-06-26T12:10:15;5.75;;;1.80;;
20411;SDS011;10365;52.578;8.138;2023-06-26T12:12:41;5.90;;;1.75;;
20411;SDS011;10365;52.578;8.138;2023-06-26T12:15:07;4.75;;;1.70;;
20411;SDS011;10365;52.578;8.138;2023-06-26T12:17:34;5.25;;;1.73;;
20411;SDS011;10365;52.578;8.138;2023-06-26T12:20:02;2.42;;;1.30;;
20411;SDS011;10365;52.578;8.138;2023-06-26T12:22:33;4.70;;;1.67;;
20411;SDS011;10365;52.578;8.138;2023-06-26T12:24:59;2.85;;;1.50;;
20411;SDS011;10365;52.578;8.138;2023-06-26T12:27:25;4.70;;;1.60;;
20411;SDS011;10365;52.578;8.138;2023-06-26T12:29:51;3.42;;;1.50;;
20411;SDS011;10365;52.578;8.138;2023-06-26T12:32:18;4.30;;;1.45;;
20411;SDS011;10365;52.578;8.138;2023-06-26T12:34:46;3.15;;;1.70;;
20411;SDS011;10365;52.578;8.138;2023-06-26T12:37:12;3.72;;;1.60;;
20411;SDS011;10365;52.578;8.138;2023-06-26T12:39:45;3.58;;;1.52;;
20411;SDS011;10365;52.578;8.138;2023-06-26T12:42:19;4.28;;;2.00;;
20411;SDS011;10365;52.578;8.138;2023-06-26T12:44:44;5.20;;;1.48;;
20411;SDS011;10365;52.578;8.138;2023-06-26T12:47:10;2.75;;;1.40;;
20411;SDS011;10365;52.578;8.138;2023-06-26T12:49:39;4.03;;;1.50;;
20411;SDS011;10365;52.578;8.138;2023-06-26T12:52:05;3.13;;;1.38;;
20411;SDS011;10365;52.578;8.138;2023-06-26T12:54:31;5.95;;;1.52;;
20411;SDS011;10365;52.578;8.138;2023-06-26T12:56:57;2.78;;;1.45;;
20411;SDS011;10365;52.578;8.138;2023-06-26T12:59:22;9.07;;;2.03;;
20411;SDS011;10365;52.578;8.138;2023-06-26T13:01:48;4.00;;;1.60;;
20411;SDS011;10365;52.578;8.138;2023-06-26T13:04:13;7.68;;;1.63;;
20411;SDS011;10365;52.578;8.138;2023-06-26T13:06:39;4.88;;;1.55;;
20411;SDS011;10365;52.578;8.138;2023-06-26T13:09:04;3.88;;;1.50;;
20411;SDS011;10365;52.578;8.138;2023-06-26T13:11:30;5.35;;;1.83;;
20411;SDS011;10365;52.578;8.138;2023-06-26T13:13:55;4.18;;;1.65;;
20411;SDS011;10365;52.578;8.138;2023-06-26T13:16:21;3.47;;;1.42;;
20411;SDS011;10365;52.578;8.138;2023-06-26T13:18:46;4.78;;;1.52;;
20411;SDS011;10365;52.578;8.138;2023-06-26T13:21:12;7.20;;;1.50;;
20411;SDS011;10365;52.578;8.138;2023-06-26T13:23:38;4.00;;;1.77;;
20411;SDS011;10365;52.578;8.138;2023-06-26T13:26:04;7.25;;;1.50;;
20411;SDS011;10365;52.578;8.138;2023-06-26T13:28:29;3.97;;;1.20;;
20411;SDS011;10365;52.578;8.138;2023-06-26T13:30:55;2.80;;;1.23;;
20411;SDS011;10365;52.578;8.138;2023-06-26T13:33:20;3.22;;;1.23;;
20411;SDS011;10365;52.578;8.138;2023-06-26T13:35:45;4.32;;;1.63;;
20411;SDS011;10365;52.578;8.138;2023-06-26T13:38:11;9.75;;;1.30;;
20411;SDS011;10365;52.578;8.138;2023-06-26T13:40:37;5.57;;;1.58;;
20411;SDS011;10365;52.578;8.138;2023-06-26T13:43:02;6.38;;;1.42;;
20411;SDS011;10365;52.578;8.138;2023-06-26T13:45:28;6.90;;;1.60;;
20411;SDS011;10365;52.578;8.138;2023-06-26T13:47:54;4.82;;;1.38;;
20411;SDS011;10365;52.578;8.138;2023-06-26T13:50:19;3.75;;;1.27;;
20411;SDS011;10365;52.578;8.138;2023-06-26T13:52:45;2.33;;;1.40;;
20411;SDS011;10365;52.578;8.138;2023-06-26T13:55:10;5.68;;;1.63;;
20411;SDS011;10365;52.578;8.138;2023-06-26T13:57:36;3.08;;;1.20;;
20411;SDS011;10365;52.578;8.138;2023-06-26T14:00:06;2.53;;;1.30;;
20411;SDS011;10365;52.578;8.138;2023-06-26T14:02:37;3.53;;;0.90;;
20411;SDS011;10365;52.578;8.138;2023-06-26T14:05:03;1.75;;;1.10;;
20411;SDS011;10365;52.578;8.138;2023-06-26T14:07:29;2.60;;;1.30;;
20411;SDS011;10365;52.578;8.138;2023-06-26T14:09:54;5.28;;;1.38;;
20411;SDS011;10365;52.578;8.138;2023-06-26T14:12:19;3.17;;;1.10;;
20411;SDS011;10365;52.578;8.138;2023-06-26T14:14:45;3.10;;;1.23;;
20411;SDS011;10365;52.578;8.138;2023-06-26T14:17:10;2.53;;;1.00;;
20411;SDS011;10365;52.578;8.138;2023-06-26T14:19:41;2.75;;;1.10;;
20411;SDS011;10365;52.578;8.138;2023-06-26T14:22:06;4.82;;;1.15;;
20411;SDS011;10365;52.578;8.138;2023-06-26T14:24:32;2.85;;;1.02;;
20411;SDS011;10365;52.578;8.138;2023-06-26T14:26:57;2.33;;;1.20;;
20411;SDS011;10365;52.578;8.138;2023-06-26T14:29:23;3.13;;;1.33;;
20411;SDS011;10365;52.578;8.138;2023-06-26T14:31:48;7.68;;;1.27;;
20411;SDS011;10365;52.578;8.138;2023-06-26T14:34:14;3.45;;;1.50;;
20411;SDS011;10365;52.578;8.138;2023-06-26T14:36:39;7.15;;;1.30;;
20411;SDS011;10365;52.578;8.138;2023-06-26T14:39:04;3.85;;;0.98;;
20411;SDS011;10365;52.578;8.138;2023-06-26T14:41:30;4.22;;;1.20;;